Time;durP1;ratioP1;P1;durP2;ratioP2;P2;SDS_P1;SDS_P2;PMS_P1;PMS_P2;Temp;Humidity;BMP_temperature;BMP_pressure;BME280_temperature;BME280_humidity;BME280_pressure;Samples;Min_cycle;Max_cycle;Signal;HPM_P1;HPM_P2
2022/01/27 00:00:43;;;;;;;34.92;20.90;;;128.30;2252.80;;;;;;5043381;28;20090;-54
2022/01/27 00:03:24;;;;;;;28.65;16.35;;;128.20;2252.80;;;;;;5043215;28;20035;-54
2022/01/27 00:05:54;;;;;;;37.70;20.38;;;128.20;2252.80;;;;;;5048182;28;20083;-54
2022/01/27 00:08:31;;;;;;;29.58;15.57;;;128.10;2252.80;;;;;;5091565;28;20032;-59
2022/01/27 00:11:03;;;;;;;50.83;30.00;;;128.10;2252.80;;;;;;5091376;28;20069;-63
2022/01/27 00:13:32;;;;;;;33.35;19.02;;;128.10;2252.80;;;;;;5089662;28;20016;-64
2022/01/27 00:16:12;;;;;;;29.25;16.38;;;128.20;2252.80;;;;;;5091475;28;20015;-55
2022/01/27 00:18:38;;;;;;;33.90;19.70;;;128.10;2252.80;;;;;;5090504;28;20028;-55
2022/01/27 00:21:04;;;;;;;46.13;25.15;;;128.10;2252.80;;;;;;5088995;28;20027;-55
2022/01/27 00:23:30;;;;;;;25.55;16.80;;;128.30;2252.80;;;;;;5091590;28;20020;-58
2022/01/27 00:25:56;;;;;;;26.77;15.07;;;128.20;2252.80;;;;;;5091137;28;20055;-65
2022/01/27 00:28:22;;;;;;;71.63;34.90;;;128.20;2252.80;;;;;;5091364;28;20068;-65
2022/01/27 00:30:47;;;;;;;31.45;19.52;;;128.20;2252.80;;;;;;5091116;28;20103;-63
2022/01/27 00:33:13;;;;;;;86.18;33.92;;;128.30;2252.80;;;;;;5091169;28;20459;-61
2022/01/27 00:35:39;;;;;;;76.03;37.47;;;128.10;2252.80;;;;;;5090967;28;20043;-63
2022/01/27 00:38:05;;;;;;;55.67;26.02;;;128.00;2252.80;;;;;;5091079;28;20085;-55
2022/01/27 00:40:31;;;;;;;113.55;48.97;;;128.00;2252.80;;;;;;5091124;28;20054;-54
2022/01/27 00:42:57;;;;;;;38.88;19.63;;;128.00;2252.80;;;;;;5090979;28;20028;-56
2022/01/27 00:45:24;;;;;;;43.65;22.17;;;103.20;2227.20;;;;;;5090983;28;20094;-60
2022/01/27 00:47:50;;;;;;;29.95;15.55;;;103.20;2227.20;;;;;;5090913;28;20373;-53
2022/01/27 00:50:18;;;;;;;24.00;14.15;;;103.30;2227.20;;;;;;5091039;28;20460;-55
2022/01/27 00:52:49;;;;;;;484.33;293.13;;;103.20;2227.20;;;;;;5090328;28;20077;-57
2022/01/27 00:55:16;;;;;;;103.75;43.33;;;103.10;2227.20;;;;;;5090763;28;20028;-62
2022/01/27 01:00:24;;;;;;;33.65;18.70;;;103.30;2227.20;;;;;;5090486;28;20024;-65
2022/01/27 01:03:00;;;;;;;35.47;20.25;;;103.20;2227.20;;;;;;5088820;28;20099;-58
2022/01/27 01:07:56;;;;;;;29.40;16.67;;;103.30;2227.20;;;;;;5090584;28;20028;-52
2022/01/27 01:15:48;;;;;;;31.05;18.48;;;103.30;2227.20;;;;;;5088092;28;20173;-53
2022/01/27 01:33:58;;;;;;;28.48;15.82;;;103.20;2227.20;;;;;;5090047;28;20020;-54
2022/01/27 01:36:43;;;;;;;32.30;22.13;;;103.20;2227.20;;;;;;5090071;28;20028;-56
2022/01/27 01:39:08;;;;;;;29.45;17.55;;;103.20;2227.20;;;;;;5087724;28;20115;-54
2022/01/27 01:41:34;;;;;;;27.10;15.50;;;103.20;2227.20;;;;;;5090001;28;20444;-56
2022/01/27 01:44:01;;;;;;;29.25;16.60;;;103.20;2227.20;;;;;;5089875;28;20456;-63
2022/01/27 01:46:26;;;;;;;29.48;16.35;;;103.30;2227.20;;;;;;5089672;28;20020;-65
2022/01/27 01:48:52;;;;;;;28.75;16.50;;;103.30;2227.20;;;;;;5089985;28;20105;-63
2022/01/27 01:51:27;;;;;;;51.72;35.92;;;128.10;2252.80;;;;;;5089525;28;20102;-58
2022/01/27 01:53:54;;;;;;;34.40;18.52;;;128.10;2252.80;;;;;;5088328;28;20028;-63
2022/01/27 01:56:20;;;;;;;40.38;25.30;;;103.30;2227.20;;;;;;5089462;28;20065;-54
2022/01/27 01:58:46;;;;;;;31.15;17.77;;;103.30;2227.20;;;;;;5090379;28;20070;-55
2022/01/27 02:01:12;;;;;;;57.58;27.77;;;103.30;2227.20;;;;;;5091129;28;20020;-56
2022/01/27 02:03:37;;;;;;;41.67;20.27;;;103.10;2227.20;;;;;;5090493;28;20430;-55
2022/01/27 02:06:04;;;;;;;26.85;16.40;;;103.30;2227.20;;;;;;5091353;28;20035;-64
2022/01/27 02:08:44;;;;;;;24.42;15.30;;;103.10;2227.20;;;;;;5090802;28;20500;-58
2022/01/27 02:19:27;;;;;;;108.53;43.28;;;103.20;2227.20;;;;;;5091019;28;20028;-57
2022/01/27 02:21:59;;;;;;;36.05;17.35;;;103.10;2227.20;;;;;;5090618;28;20027;-61
2022/01/27 02:24:31;;;;;;;98.45;36.85;;;103.20;2227.20;;;;;;5090545;28;20108;-57
2022/01/27 02:26:58;;;;;;;24.17;14.23;;;103.30;2227.20;;;;;;5090523;28;20051;-63
2022/01/27 02:29:25;;;;;;;425.45;178.18;;;103.20;2227.20;;;;;;5090287;28;20083;-55
2022/01/27 02:31:52;;;;;;;61.30;31.42;;;103.10;2227.20;;;;;;5090488;28;20051;-61
2022/01/27 02:34:19;;;;;;;91.00;40.55;;;103.10;2227.20;;;;;;5090276;28;20107;-60
2022/01/27 02:36:45;;;;;;;36.50;20.48;;;103.20;2227.20;;;;;;5090307;28;20048;-54
2022/01/27 02:39:11;;;;;;;71.68;33.53;;;103.20;2227.20;;;;;;5090540;28;20429;-54
2022/01/27 02:41:46;;;;;;;74.35;33.72;;;103.20;2227.20;;;;;;5090313;28;20020;-54
2022/01/27 02:44:43;;;;;;;37.45;19.35;;;103.20;2227.20;;;;;;5090389;28;20493;-55
2022/01/27 02:47:09;;;;;;;32.22;17.30;;;103.20;2227.20;;;;;;5090201;28;20070;-62
2022/01/27 02:49:34;;;;;;;29.02;17.05;;;103.20;2227.20;;;;;;5090200;28;20489;-55
2022/01/27 02:52:00;;;;;;;30.63;15.80;;;103.10;2227.20;;;;;;5090802;28;20493;-60
2022/01/27 02:54:26;;;;;;;32.22;16.05;;;103.10;2227.20;;;;;;5090236;28;20031;-54
2022/01/27 02:56:52;;;;;;;56.15;25.08;;;103.10;2227.20;;;;;;5090265;28;20035;-54
2022/01/27 02:59:20;;;;;;;33.90;17.90;;;103.10;2227.20;;;;;;5090196;28;20024;-63
2022/01/27 03:01:47;;;;;;;25.85;14.07;;;103.00;2227.20;;;;;;5089850;28;20024;-63
2022/01/27 03:04:14;;;;;;;59.78;27.52;;;102.90;2227.20;;;;;;5089820;28;20394;-59
2022/01/27 03:06:40;;;;;;;47.28;27.20;;;102.90;2227.20;;;;;;5090185;28;20165;-53
2022/01/27 03:09:06;;;;;;;24.80;15.15;;;103.00;2227.20;;;;;;5089939;28;20484;-63
2022/01/27 03:11:35;;;;;;;51.13;22.63;;;103.00;2227.20;;;;;;5090059;28;20059;-60
2022/01/27 03:14:02;;;;;;;106.85;50.58;;;103.00;2227.20;;;;;;5090351;28;20039;-55
2022/01/27 03:16:27;;;;;;;38.08;21.85;;;102.90;2227.20;;;;;;5089909;28;20103;-58
2022/01/27 03:18:53;;;;;;;30.67;18.33;;;103.00;2227.20;;;;;;5089914;28;20146;-64
2022/01/27 03:21:19;;;;;;;34.05;17.80;;;103.00;2227.20;;;;;;5089724;28;20031;-55
2022/01/27 03:23:44;;;;;;;47.90;24.00;;;103.00;2227.20;;;;;;5089969;28;20024;-55
2022/01/27 03:26:10;;;;;;;61.35;28.05;;;102.90;2227.20;;;;;;5089916;28;20095;-59
2022/01/27 03:28:36;;;;;;;33.70;15.73;;;103.00;2227.20;;;;;;5089503;28;20471;-64
2022/01/27 03:31:02;;;;;;;159.55;73.22;;;103.00;2227.20;;;;;;5090089;28;20377;-54
2022/01/27 03:33:27;;;;;;;29.95;15.93;;;103.00;2227.20;;;;;;5089570;28;20025;-63
2022/01/27 03:35:53;;;;;;;34.85;17.40;;;103.10;2227.20;;;;;;5089723;28;20490;-58
2022/01/27 03:38:19;;;;;;;35.40;18.95;;;103.00;2227.20;;;;;;5089668;28;20032;-61
2022/01/27 03:40:45;;;;;;;28.35;15.98;;;103.00;2227.20;;;;;;5090630;28;20028;-55
2022/01/27 03:43:11;;;;;;;119.95;49.78;;;103.00;2227.20;;;;;;5093704;28;20467;-64
2022/01/27 03:45:38;;;;;;;36.08;17.48;;;103.00;2227.20;;;;;;5093419;28;20032;-63
2022/01/27 03:48:04;;;;;;;177.93;76.35;;;103.10;2227.20;;;;;;5093490;28;20032;-54
2022/01/27 03:50:31;;;;;;;34.58;18.33;;;103.10;2227.20;;;;;;5093682;28;20472;-64
2022/01/27 03:52:57;;;;;;;35.08;17.33;;;103.00;2227.20;;;;;;5093644;28;20084;-61
2022/01/27 03:55:22;;;;;;;52.83;23.60;;;103.00;2227.20;;;;;;5093425;28;20028;-59
2022/01/27 03:57:48;;;;;;;20.92;12.77;;;103.00;2227.20;;;;;;5093256;28;20035;-54
2022/01/27 04:00:14;;;;;;;16.10;9.68;;;103.00;2227.20;;;;;;5093619;28;20453;-55
2022/01/27 04:02:51;;;;;;;185.13;83.32;;;102.80;2227.20;;;;;;5093236;28;20021;-59
2022/01/27 04:05:21;;;;;;;217.50;101.50;;;102.80;2227.20;;;;;;5092904;28;20490;-63
2022/01/27 04:07:47;;;;;;;38.67;20.10;;;102.90;2227.20;;;;;;5092881;28;20537;-56
2022/01/27 04:10:13;;;;;;;82.43;38.67;;;103.00;2227.20;;;;;;5093411;28;20024;-62
2022/01/27 04:12:38;;;;;;;35.17;16.60;;;102.90;2227.20;;;;;;5092974;28;20024;-54
2022/01/27 04:15:05;;;;;;;25.73;13.75;;;103.00;2227.20;;;;;;5093060;28;20020;-57
2022/01/27 04:17:31;;;;;;;44.33;22.45;;;102.90;2227.20;;;;;;5093182;28;20108;-54
2022/01/27 04:19:57;;;;;;;76.63;35.30;;;103.00;2227.20;;;;;;5092760;28;20457;-62
2022/01/27 04:22:22;;;;;;;20.83;12.13;;;103.00;2227.20;;;;;;5093126;28;20036;-54
2022/01/27 04:24:48;;;;;;;33.42;18.27;;;102.90;2227.20;;;;;;5092807;28;20020;-64
2022/01/27 04:27:19;;;;;;;20.35;12.75;;;102.90;2227.20;;;;;;5092548;28;20039;-56
2022/01/27 04:29:45;;;;;;;19.73;11.85;;;102.80;2227.20;;;;;;5092606;28;20032;-54
2022/01/27 04:32:13;;;;;;;26.90;13.85;;;102.80;2227.20;;;;;;5092677;28;20028;-62
2022/01/27 04:34:41;;;;;;;130.82;62.30;;;102.90;2227.20;;;;;;5092562;28;20032;-65
2022/01/27 04:37:10;;;;;;;53.13;28.77;;;102.90;2227.20;;;;;;5092297;28;20031;-59
2022/01/27 04:39:57;;;;;;;55.70;29.88;;;102.90;2227.20;;;;;;5092485;28;20028;-54
2022/01/27 04:42:36;;;;;;;103.85;50.40;;;103.00;2227.20;;;;;;5092536;28;20024;-55
2022/01/27 04:45:05;;;;;;;79.35;41.30;;;103.00;2227.20;;;;;;5092738;28;20107;-55
2022/01/27 04:47:37;;;;;;;86.78;41.40;;;102.90;2227.20;;;;;;5092854;28;20085;-54
2022/01/27 04:50:04;;;;;;;51.72;26.90;;;102.90;2227.20;;;;;;5092580;28;20047;-62
2022/01/27 04:52:33;;;;;;;88.22;43.00;;;103.00;2227.20;;;;;;5092171;28;20393;-55
2022/01/27 04:55:10;;;;;;;66.07;36.20;;;102.90;2227.20;;;;;;5092177;28;20028;-55
2022/01/27 04:57:39;;;;;;;27.80;14.60;;;103.00;2227.20;;;;;;5091817;28;20035;-54
2022/01/27 05:00:07;;;;;;;60.55;33.55;;;103.00;2227.20;;;;;;5091918;28;20030;-58
2022/01/27 05:02:46;;;;;;;42.33;23.77;;;103.00;2227.20;;;;;;5091609;28;20496;-55
2022/01/27 05:05:12;;;;;;;27.02;14.45;;;103.00;2227.20;;;;;;5092042;28;20056;-62
2022/01/27 05:07:39;;;;;;;44.70;24.35;;;103.10;2227.20;;;;;;5091907;28;20359;-62
2022/01/27 05:10:12;;;;;;;25.38;15.45;;;103.00;2227.20;;;;;;5091853;28;20020;-57
2022/01/27 05:12:50;;;;;;;27.77;15.23;;;103.00;2227.20;;;;;;5091578;28;20493;-55
2022/01/27 05:15:17;;;;;;;36.38;20.00;;;103.00;2227.20;;;;;;5091636;28;20077;-60
2022/01/27 05:17:43;;;;;;;38.58;18.52;;;103.00;2227.20;;;;;;5091952;28;20103;-55
2022/01/27 05:20:10;;;;;;;76.22;34.90;;;103.10;2227.20;;;;;;5091687;28;20177;-56
2022/01/27 05:22:36;;;;;;;36.30;20.67;;;103.00;2227.20;;;;;;5091538;28;20382;-62
2022/01/27 05:25:03;;;;;;;46.72;26.67;;;103.00;2227.20;;;;;;5091748;28;20039;-63
2022/01/27 05:27:28;;;;;;;35.67;19.17;;;103.00;2227.20;;;;;;5091373;28;20026;-61
2022/01/27 05:29:54;;;;;;;42.67;25.10;;;103.00;2227.20;;;;;;5091637;28;20067;-56
2022/01/27 05:32:20;;;;;;;54.63;30.98;;;103.00;2227.20;;;;;;5091445;28;20466;-61
2022/01/27 05:34:48;;;;;;;37.58;21.15;;;103.00;2227.20;;;;;;5091332;28;20043;-59
2022/01/27 05:37:13;;;;;;;58.85;29.52;;;103.10;2227.20;;;;;;5091526;28;20035;-55
2022/01/27 05:39:39;;;;;;;49.15;25.10;;;103.10;2227.20;;;;;;5091614;28;20032;-61
2022/01/27 05:42:05;;;;;;;56.08;28.23;;;103.10;2227.20;;;;;;5091183;28;20087;-60
2022/01/27 05:44:31;;;;;;;80.07;38.00;;;103.20;2227.20;;;;;;5091357;28;20027;-57
2022/01/27 05:46:57;;;;;;;116.32;54.38;;;103.20;2227.20;;;;;;5091351;28;20371;-57
2022/01/27 05:49:23;;;;;;;117.18;56.53;;;103.20;2227.20;;;;;;5091336;28;20072;-61
2022/01/27 05:51:49;;;;;;;79.20;40.00;;;103.00;2227.20;;;;;;5091114;28;20063;-59
2022/01/27 05:54:15;;;;;;;59.65;31.77;;;103.20;2227.20;;;;;;5091068;28;20442;-56
2022/01/27 05:56:40;;;;;;;67.32;31.08;;;103.20;2227.20;;;;;;5091215;28;20066;-59
2022/01/27 05:59:06;;;;;;;100.22;46.25;;;103.10;2227.20;;;;;;5090975;28;20458;-55
2022/01/27 06:01:32;;;;;;;170.63;82.85;;;103.30;2227.20;;;;;;5091304;28;20024;-61
2022/01/27 06:03:57;;;;;;;124.47;54.83;;;103.30;2227.20;;;;;;5090098;28;20134;-60
2022/01/27 06:06:23;;;;;;;93.63;44.53;;;103.30;2227.20;;;;;;5091101;28;20536;-58
2022/01/27 06:08:49;;;;;;;280.48;124.75;;;103.30;2227.20;;;;;;5090619;28;20036;-55
2022/01/27 06:11:15;;;;;;;150.88;73.55;;;103.30;2227.20;;;;;;5090654;28;20129;-56
2022/01/27 06:13:40;;;;;;;125.18;68.32;;;103.30;2227.20;;;;;;5091002;28;20031;-61
2022/01/27 06:16:10;;;;;;;54.72;33.88;;;103.30;2227.20;;;;;;5090842;28;20020;-61
2022/01/27 06:18:37;;;;;;;46.35;26.20;;;128.00;2252.80;;;;;;5090530;28;20039;-62
2022/01/27 06:21:05;;;;;;;38.33;22.00;;;103.30;2227.20;;;;;;5090613;28;20119;-56
2022/01/27 06:23:31;;;;;;;36.80;23.25;;;128.40;2252.80;;;;;;5090851;28;20085;-56
2022/01/27 06:25:58;;;;;;;29.17;15.90;;;128.00;2252.80;;;;;;5090441;28;20043;-55
2022/01/27 06:28:24;;;;;;;52.45;29.40;;;128.10;2252.80;;;;;;5090636;28;20044;-63
2022/01/27 06:30:50;;;;;;;48.85;24.58;;;128.10;2252.80;;;;;;5089127;28;20028;-55
2022/01/27 06:33:15;;;;;;;45.05;22.40;;;128.20;2252.80;;;;;;5087495;28;20046;-55
2022/01/27 06:35:41;;;;;;;29.75;16.88;;;128.30;2252.80;;;;;;5086800;28;20524;-60
2022/01/27 06:38:07;;;;;;;27.83;16.52;;;128.40;2252.80;;;;;;5088464;28;20020;-57
2022/01/27 06:40:34;;;;;;;29.30;17.20;;;128.20;2252.80;;;;;;5089161;28;20107;-59
2022/01/27 06:42:59;;;;;;;37.85;21.45;;;128.30;2252.80;;;;;;5088615;28;20020;-58
2022/01/27 06:45:25;;;;;;;47.10;25.65;;;128.40;2252.80;;;;;;5088359;28;20028;-60
2022/01/27 06:47:51;;;;;;;42.40;25.60;;;128.30;2252.80;;;;;;5089754;28;20020;-62
2022/01/27 06:50:17;;;;;;;38.00;20.48;;;128.40;2252.80;;;;;;5090106;28;20032;-58
2022/01/27 06:52:43;;;;;;;31.58;17.23;;;128.40;2252.80;;;;;;5090411;28;20027;-56
2022/01/27 06:55:10;;;;;;;27.45;15.82;;;128.30;2252.80;;;;;;5090145;28;20024;-54
2022/01/27 06:57:36;;;;;;;106.53;60.97;;;128.40;2252.80;;;;;;5090181;28;20043;-57
2022/01/27 07:00:07;;;;;;;73.97;48.05;;;128.30;2252.80;;;;;;5090203;28;20400;-58
2022/01/27 07:02:33;;;;;;;83.60;60.47;;;128.30;2252.80;;;;;;5089970;28;20032;-57
2022/01/27 07:04:59;;;;;;;71.30;51.08;;;128.40;2252.80;;;;;;5089801;28;20087;-59
2022/01/27 07:07:25;;;;;;;64.20;40.38;;;128.50;2252.80;;;;;;5089913;28;20085;-55
2022/01/27 07:09:51;;;;;;;48.90;32.85;;;128.60;2252.80;;;;;;5090039;28;20047;-58
2022/01/27 07:12:17;;;;;;;69.05;45.15;;;128.80;2252.80;;;;;;5090098;28;20077;-59
2022/01/27 07:14:42;;;;;;;75.38;48.67;;;128.90;2252.80;;;;;;5090009;28;20381;-60
2022/01/27 07:17:08;;;;;;;84.88;54.40;;;128.80;2252.80;;;;;;5093328;28;20043;-55
2022/01/27 07:19:34;;;;;;;98.63;58.50;;;128.90;2252.80;;;;;;5094410;28;20035;-55
2022/01/27 07:22:00;;;;;;;123.78;73.93;;;128.90;2252.80;;;;;;5094169;28;20027;-56
2022/01/27 07:24:26;;;;;;;141.40;88.10;;;153.60;2252.80;;;;;;5093929;28;20024;-56
2022/01/27 07:26:52;;;;;;;140.10;81.32;;;153.60;2252.80;;;;;;5094092;28;20440;-61
2022/01/27 07:29:18;;;;;;;164.85;99.40;;;153.70;2252.80;;;;;;5093788;28;20115;-57
2022/01/27 07:31:44;;;;;;;266.67;162.20;;;153.70;2252.80;;;;;;5093703;28;20028;-56
2022/01/27 07:34:09;;;;;;;286.05;180.48;;;153.80;2252.80;;;;;;5093779;28;20081;-55
2022/01/27 07:36:35;;;;;;;371.85;235.95;;;153.80;2252.80;;;;;;5093102;28;20025;-57
2022/01/27 07:39:02;;;;;;;268.30;171.68;;;153.90;2252.80;;;;;;5093956;28;20025;-60
2022/01/27 07:41:28;;;;;;;258.60;163.02;;;153.90;2252.80;;;;;;5093512;28;20028;-57
2022/01/27 07:43:53;;;;;;;227.13;145.30;;;153.90;2252.80;;;;;;5093558;28;20491;-57
2022/01/27 07:46:19;;;;;;;235.35;151.10;;;154.10;2252.80;;;;;;5093455;28;20063;-56
2022/01/27 07:48:45;;;;;;;277.15;174.77;;;154.30;2252.80;;;;;;5093440;28;20040;-55
2022/01/27 07:51:11;;;;;;;360.25;214.63;;;154.40;2252.80;;;;;;5093448;28;20031;-61
2022/01/27 07:53:38;;;;;;;275.67;175.90;;;154.50;2252.80;;;;;;5093508;28;20024;-58
2022/01/27 07:56:04;;;;;;;261.63;166.60;;;179.50;2252.80;;;;;;5093602;28;20493;-56
2022/01/27 07:58:38;;;;;;;211.68;130.30;;;179.80;2252.80;;;;;;5093657;28;20038;-62
2022/01/27 08:01:07;;;;;;;166.05;101.97;;;179.50;2252.80;;;;;;5093530;28;20478;-60
2022/01/27 08:03:34;;;;;;;158.50;96.43;;;179.70;2252.80;;;;;;5093358;28;20113;-58
2022/01/27 08:05:59;;;;;;;155.20;96.95;;;180.00;2252.80;;;;;;5093272;28;20355;-56
2022/01/27 08:08:25;;;;;;;131.80;80.75;;;204.80;2252.80;;;;;;5092908;28;20077;-56
2022/01/27 08:10:51;;;;;;;65.38;42.42;;;204.80;2252.80;;;;;;5093234;28;20024;-54
2022/01/27 08:13:16;;;;;;;141.57;96.05;;;180.10;2252.80;;;;;;5092963;28;20056;-57
2022/01/27 08:15:42;;;;;;;216.85;138.43;;;180.00;2252.80;;;;;;5093145;28;20028;-57
2022/01/27 08:18:08;;;;;;;221.63;142.82;;;180.00;2252.80;;;;;;5092820;28;20063;-57
2022/01/27 08:20:34;;;;;;;236.45;150.05;;;180.00;2252.80;;;;;;5092978;28;20026;-58
2022/01/27 08:22:59;;;;;;;232.00;147.35;;;180.00;2252.80;;;;;;5093137;28;20027;-57
2022/01/27 08:25:25;;;;;;;220.75;143.05;;;180.00;2252.80;;;;;;5092741;28;20039;-57
2022/01/27 08:27:55;;;;;;;226.93;143.95;;;180.10;2252.80;;;;;;5091913;28;20028;-59
2022/01/27 08:30:24;;;;;;;211.32;144.65;;;179.90;2252.80;;;;;;5092058;28;20043;-56
2022/01/27 08:33:04;;;;;;;238.70;159.52;;;179.90;2252.80;;;;;;5091800;28;20157;-56
2022/01/27 08:35:31;;;;;;;238.35;157.55;;;180.00;2252.80;;;;;;5092950;28;20033;-57
2022/01/27 08:37:57;;;;;;;222.60;159.80;;;179.90;2252.80;;;;;;5092618;28;20470;-56
2022/01/27 08:40:24;;;;;;;228.55;147.30;;;180.00;2252.80;;;;;;5092667;28;20035;-57
2022/01/27 08:42:50;;;;;;;240.82;153.50;;;180.10;2252.80;;;;;;5092565;28;20103;-57
2022/01/27 08:45:19;;;;;;;217.70;136.48;;;180.00;2252.80;;;;;;5092195;28;20170;-57
2022/01/27 08:47:46;;;;;;;248.68;165.48;;;205.00;2252.80;;;;;;5092637;28;20496;-57
2022/01/27 08:50:14;;;;;;;257.23;171.85;;;205.40;2252.80;;;;;;5092550;28;20032;-58
2022/01/27 08:52:41;;;;;;;286.25;197.25;;;205.40;2252.80;;;;;;5092582;28;20028;-57
2022/01/27 08:55:08;;;;;;;102.78;66.03;;;230.40;2201.60;;;;;;5092178;28;20028;-59
2022/01/27 08:57:34;;;;;;;195.65;127.43;;;230.70;2048.00;;;;;;5092587;28;20085;-57
2022/01/27 09:00:02;;;;;;;179.35;122.32;;;230.80;2073.60;;;;;;5092439;28;20028;-57
2022/01/27 09:02:28;;;;;;;93.93;61.83;;;230.80;2099.20;;;;;;5092167;28;20378;-57
2022/01/27 09:04:54;;;;;;;79.53;49.90;;;230.80;2073.60;;;;;;5092104;28;20109;-56
2022/01/27 09:07:20;;;;;;;114.72;80.32;;;230.70;2048.00;;;;;;5092212;28;20024;-58
2022/01/27 09:09:47;;;;;;;48.20;33.45;;;230.80;2048.00;;;;;;5091853;28;20067;-57
2022/01/27 09:12:14;;;;;;;84.35;58.67;;;230.70;2048.00;;;;;;5092101;28;20359;-56
2022/01/27 09:14:42;;;;;;;61.35;41.13;;;230.70;2048.00;;;;;;5090811;28;20035;-57
2022/01/27 09:17:12;;;;;;;96.60;61.22;;;205.70;2048.00;;;;;;5091984;28;20024;-56
2022/01/27 09:19:40;;;;;;;96.43;57.03;;;205.70;2048.00;;;;;;5091777;28;20032;-58
2022/01/27 09:22:12;;;;;;;91.38;62.60;;;205.60;2073.60;;;;;;5091599;28;20043;-57
2022/01/27 09:24:48;;;;;;;115.45;75.32;;;205.50;2073.60;;;;;;5091791;28;20491;-57
2022/01/27 09:27:14;;;;;;;132.23;83.80;;;230.50;2073.60;;;;;;5091826;28;20027;-57
2022/01/27 09:29:40;;;;;;;149.18;95.97;;;230.70;2048.00;;;;;;5091248;28;20036;-57
2022/01/27 09:32:06;;;;;;;113.90;75.00;;;231.00;1996.80;;;;;;5091325;28;20016;-57
2022/01/27 09:34:32;;;;;;;108.43;74.72;;;230.50;2048.00;;;;;;5091571;28;20089;-57
2022/01/27 09:37:02;;;;;;;114.50;74.82;;;230.60;2048.00;;;;;;5091162;28;20028;-57
2022/01/27 09:39:29;;;;;;;96.43;63.15;;;230.60;2048.00;;;;;;5090374;28;20474;-57
2022/01/27 09:41:57;;;;;;;70.43;44.95;;;230.80;2022.40;;;;;;5091255;28;20020;-57
2022/01/27 09:44:29;;;;;;;75.28;51.00;;;230.80;1996.80;;;;;;5091517;28;20020;-57
2022/01/27 09:47:01;;;;;;;81.10;49.70;;;230.90;1971.20;;;;;;5090767;28;20032;-57
2022/01/27 09:49:35;;;;;;;56.53;37.88;;;230.70;1971.20;;;;;;5088382;28;20055;-57
2022/01/27 09:52:02;;;;;;;79.03;53.10;;;230.70;1971.20;;;;;;5091310;28;20021;-57
2022/01/27 09:54:28;;;;;;;62.17;46.03;;;230.70;1971.20;;;;;;5091292;28;20023;-57
2022/01/27 09:56:54;;;;;;;65.05;42.15;;;231.00;1920.00;;;;;;5091419;28;20069;-57
2022/01/27 09:59:21;;;;;;;63.53;42.08;;;231.20;1894.40;;;;;;5091085;28;20027;-57
2022/01/27 10:02:03;;;;;;;54.40;35.63;;;231.10;1868.80;;;;;;5090899;28;20564;-56
2022/01/27 10:04:42;;;;;;;42.47;28.60;;;230.80;1894.40;;;;;;5090511;28;20059;-57
2022/01/27 10:07:08;;;;;;;49.72;33.25;;;230.50;1920.00;;;;;;5090683;28;20034;-56
2022/01/27 10:09:34;;;;;;;61.42;39.90;;;230.60;1920.00;;;;;;5091118;28;20093;-56
2022/01/27 10:12:04;;;;;;;116.50;71.35;;;230.90;1945.60;;;;;;5091021;28;20031;-56
2022/01/27 10:14:35;;;;;;;60.95;38.47;;;231.30;1868.80;;;;;;5090871;28;20062;-57
2022/01/27 10:17:06;;;;;;;100.57;59.58;;;256.70;1792.00;;;;;;5090999;28;20028;-57
2022/01/27 10:19:35;;;;;;;87.13;57.35;;;281.90;1766.40;;;;;;5090930;28;20040;-57
2022/01/27 10:22:04;;;;;;;74.43;53.63;;;282.40;1715.20;;;;;;5090749;28;20034;-57
2022/01/27 10:24:32;;;;;;;64.53;45.38;;;307.20;1740.80;;;;;;5090812;28;20486;-57
2022/01/27 10:27:17;;;;;;;64.18;46.38;;;282.50;1715.20;;;;;;5090580;28;20027;-57
2022/01/27 10:30:01;;;;;;;59.85;39.50;;;256.80;1740.80;;;;;;5088811;28;20036;-57
2022/01/27 10:32:45;;;;;;;65.82;44.53;;;256.50;1792.00;;;;;;5089891;28;20119;-57
2022/01/27 10:35:13;;;;;;;60.67;39.65;;;256.50;1792.00;;;;;;5090539;28;20032;-57
2022/01/27 10:38:02;;;;;;;79.95;54.83;;;256.60;1766.40;;;;;;5090240;28;20063;-57
2022/01/27 10:40:34;;;;;;;62.15;36.97;;;256.80;1766.40;;;;;;5090219;28;20024;-56
2022/01/27 10:43:03;;;;;;;62.03;39.47;;;231.30;1817.60;;;;;;5090380;28;20085;-57
2022/01/27 10:49:18;;;;;;;51.72;36.30;;;256.60;1792.00;;;;;;5107996;22;20081;-63
2022/01/27 10:51:51;;;;;;;43.75;29.70;;;256.80;1792.00;;;;;;5090438;28;20024;-66
2022/01/27 10:54:33;;;;;;;55.60;33.07;;;256.80;1792.00;;;;;;5090318;28;20111;-64
2022/01/27 10:57:02;;;;;;;64.30;43.17;;;256.90;1766.40;;;;;;5090435;28;20256;-63
2022/01/27 10:59:32;;;;;;;66.55;41.55;;;256.50;1766.40;;;;;;5090276;28;20024;-64
2022/01/27 11:01:58;;;;;;;62.13;42.55;;;256.50;1766.40;;;;;;5090127;28;20063;-62
2022/01/27 11:04:33;;;;;;;70.13;51.38;;;256.50;1740.80;;;;;;5090115;28;20433;-64
2022/01/27 11:07:01;;;;;;;53.83;35.72;;;256.10;1792.00;;;;;;5090149;28;20024;-64
2022/01/27 11:09:29;;;;;;;54.10;38.55;;;256.00;1792.00;;;;;;5090117;28;20043;-65
2022/01/27 11:11:56;;;;;;;253.23;176.55;;;256.00;1792.00;;;;;;5089941;28;20099;-65
2022/01/27 11:14:25;;;;;;;79.78;52.63;;;256.50;1740.80;;;;;;5088274;28;20032;-64
2022/01/27 11:16:57;;;;;;;59.50;39.15;;;281.80;1740.80;;;;;;5090492;28;20409;-65
2022/01/27 11:22:02;;;;;;;59.85;40.63;;;281.90;1740.80;;;;;;5090050;28;20032;-63
2022/01/27 11:27:25;;;;;;;46.40;33.50;;;282.50;1664.00;;;;;;5090413;28;20488;-62
2022/01/27 11:30:04;;;;;;;46.85;32.72;;;282.30;1689.60;;;;;;5089926;28;20048;-64
2022/01/27 11:32:35;;;;;;;56.58;41.80;;;307.20;1715.20;;;;;;5090186;28;20056;-62
2022/01/27 11:35:14;;;;;;;68.55;47.00;;;307.20;1664.00;;;;;;5090271;28;20103;-64
2022/01/27 11:37:40;;;;;;;56.40;38.60;;;282.50;1664.00;;;;;;5090062;28;20050;-63
2022/01/27 11:40:08;;;;;;;52.38;31.73;;;282.20;1664.00;;;;;;5090036;28;20028;-62
2022/01/27 11:42:34;;;;;;;58.95;36.58;;;281.60;1715.20;;;;;;5090101;28;20075;-63
2022/01/27 11:45:20;;;;;;;54.17;34.97;;;256.90;1715.20;;;;;;5089971;28;20477;-61
2022/01/27 11:47:51;;;;;;;68.85;44.15;;;282.00;1715.20;;;;;;5078487;28;20040;-62
2022/01/27 11:51:09;;;;;;;67.05;40.22;;;282.00;1689.60;;;;;;5089696;28;20036;-62
2022/01/27 11:53:33;;;;;;;62.67;41.58;;;281.60;1740.80;;;;;;5081207;28;20071;-64
2022/01/27 11:56:08;;;;;;;77.38;51.10;;;256.80;1715.20;;;;;;5089964;28;20032;-67
2022/01/27 11:58:46;;;;;;;66.25;43.10;;;256.70;1740.80;;;;;;5089749;28;20028;-62
2022/01/27 12:01:25;;;;;;;49.30;32.15;;;256.40;1766.40;;;;;;5089914;28;20071;-62
2022/01/27 12:04:07;;;;;;;66.60;46.28;;;256.60;1740.80;;;;;;5093602;28;20077;-62
2022/01/27 12:06:38;;;;;;;59.80;39.92;;;256.80;1740.80;;;;;;5093492;28;20024;-61
2022/01/27 12:09:27;;;;;;;61.35;41.20;;;256.60;1766.40;;;;;;5093296;28;20061;-61
2022/01/27 12:12:06;;;;;;;68.95;47.55;;;256.80;1740.80;;;;;;5083753;28;20584;-63
2022/01/27 12:14:35;;;;;;;65.95;44.88;;;256.30;1740.80;;;;;;5091879;28;20028;-63
2022/01/27 12:17:10;;;;;;;72.25;45.45;;;256.40;1766.40;;;;;;5090853;28;20042;-63
2022/01/27 12:20:09;;;;;;;105.15;59.83;;;256.00;1792.00;;;;;;5091569;28;20032;-64
2022/01/27 12:22:45;;;;;;;53.88;32.83;;;231.00;1817.60;;;;;;5028760;28;20072;-62
2022/01/27 12:25:13;;;;;;;53.85;33.10;;;230.60;1868.80;;;;;;5028899;28;20387;-67
2022/01/27 12:27:39;;;;;;;42.45;28.67;;;230.60;1868.80;;;;;;5028843;28;20479;-65
2022/01/27 12:30:09;;;;;;;48.55;29.13;;;230.60;1868.80;;;;;;5027852;28;20045;-68
2022/01/27 12:32:35;;;;;;;87.18;52.42;;;231.00;1817.60;;;;;;5028544;28;20041;-62
2022/01/27 12:35:07;;;;;;;80.18;43.47;;;231.20;1817.60;;;;;;5028794;28;20037;-64
2022/01/27 12:37:37;;;;;;;54.90;34.33;;;230.90;1817.60;;;;;;5028591;28;20030;-61
2022/01/27 12:40:06;;;;;;;48.72;29.00;;;230.70;1868.80;;;;;;5028375;28;20530;-61
2022/01/27 12:42:36;;;;;;;52.42;30.60;;;230.80;1868.80;;;;;;5027844;28;20053;-62
2022/01/27 12:45:12;;;;;;;52.88;31.58;;;230.70;1868.80;;;;;;5024438;28;20049;-63
2022/01/27 12:47:43;;;;;;;45.17;27.75;;;230.90;1868.80;;;;;;5018223;28;20038;-64